createdAt,value
2019-04-29T00:00:58.677Z,87.04
2019-04-29T00:01:58.691Z,86.94
2019-04-29T00:02:58.692Z,86.66
2019-04-29T00:03:58.697Z,85.43
2019-04-29T00:04:58.755Z,85.53
2019-04-29T00:05:58.710Z,84.68
2019-04-29T00:06:58.715Z,84.96
2019-04-29T00:07:58.716Z,84.77
2019-04-29T00:08:58.727Z,84.86
2019-04-29T00:09:58.731Z,85.15
2019-04-29T00:10:58.734Z,85.24
2019-04-29T00:11:58.743Z,86.00
2019-04-29T00:12:58.750Z,86.10
2019-04-29T00:13:58.752Z,86.00
2019-04-29T00:14:58.755Z,85.72
2019-04-29T00:15:58.768Z,85.05
2019-04-29T00:16:58.772Z,86.10
2019-04-29T00:17:58.777Z,86.38
2019-04-29T00:18:58.782Z,86.66
2019-04-29T00:19:58.789Z,86.00
2019-04-29T00:20:58.793Z,86.29
2019-04-29T00:21:58.795Z,86.38
2019-04-29T00:22:58.804Z,86.19
2019-04-29T00:24:03.938Z,86.00
2019-04-29T00:24:58.815Z,85.53
2019-04-29T00:25:58.823Z,86.38
2019-04-29T00:26:58.828Z,86.47
2019-04-29T00:27:58.834Z,86.10
2019-04-29T00:28:58.841Z,86.19
2019-04-29T00:29:58.842Z,85.62
2019-04-29T00:30:58.859Z,85.62
2019-04-29T00:31:58.852Z,85.91
2019-04-29T00:32:58.860Z,85.53
2019-04-29T00:33:58.866Z,86.19
2019-04-29T00:34:58.872Z,86.00
2019-04-29T00:35:58.874Z,86.47
2019-04-29T00:36:58.885Z,85.72
2019-04-29T00:37:58.891Z,84.86
2019-04-29T00:38:58.890Z,84.68
2019-04-29T00:39:58.902Z,84.68
2019-04-29T00:40:58.909Z,85.43
2019-04-29T00:41:58.910Z,85.62
2019-04-29T00:42:58.916Z,86.85
2019-04-29T00:43:58.920Z,87.32
2019-04-29T00:44:58.924Z,87.04
2019-04-29T00:45:58.934Z,87.61
2019-04-29T00:46:58.939Z,87.51
2019-04-29T00:47:58.945Z,88.46
2019-04-29T00:48:58.951Z,88.65
2019-04-29T00:49:58.957Z,88.65
2019-04-29T00:50:58.961Z,88.93
2019-04-29T00:51:58.962Z,89.97
2019-04-29T00:52:58.970Z,89.12
2019-04-29T00:53:58.975Z,89.12
2019-04-29T00:54:58.979Z,88.65
2019-04-29T00:55:58.990Z,88.93
2019-04-29T00:56:58.994Z,88.84
2019-04-29T00:57:59.004Z,89.12
2019-04-29T00:58:59.003Z,89.31
2019-04-29T00:59:59.006Z,89.12
2019-04-29T01:00:59.019Z,89.31
2019-04-29T01:01:59.023Z,88.46
2019-04-29T01:02:59.027Z,88.36
2019-04-29T01:03:59.070Z,87.98
2019-04-29T01:04:59.034Z,87.79
2019-04-29T01:05:59.044Z,87.98
2019-04-29T01:06:59.046Z,87.51
2019-04-29T01:07:59.053Z,87.98
2019-04-29T01:08:59.060Z,87.98
2019-04-29T01:09:59.069Z,87.61
2019-04-29T01:10:59.071Z,87.32
2019-04-29T01:11:59.076Z,86.94
2019-04-29T01:12:59.077Z,86.38
2019-04-29T01:13:59.084Z,87.13
2019-04-29T01:14:59.088Z,87.79
2019-04-29T01:15:59.094Z,87.70
2019-04-29T01:16:59.099Z,87.32
2019-04-29T01:17:59.114Z,87.13
2019-04-29T01:18:59.109Z,86.66
2019-04-29T01:19:59.119Z,87.13
2019-04-29T01:20:59.129Z,87.51
2019-04-29T01:21:59.127Z,87.51
2019-04-29T01:22:59.133Z,87.13
2019-04-29T01:23:59.154Z,86.38
2019-04-29T01:24:59.144Z,86.19
2019-04-29T01:25:59.152Z,86.19
2019-04-29T01:26:59.152Z,85.91
2019-04-29T01:27:59.160Z,85.91
2019-04-29T01:28:59.167Z,85.05
2019-04-29T01:29:59.172Z,85.43
2019-04-29T01:30:59.176Z,85.91
2019-04-29T01:31:59.182Z,85.81
2019-04-29T01:32:59.188Z,85.91
2019-04-29T01:33:59.192Z,85.34
2019-04-29T01:34:59.195Z,84.68
2019-04-29T01:35:59.205Z,84.49
2019-04-29T01:36:59.227Z,84.11
2019-04-29T01:37:59.215Z,83.36
2019-04-29T01:38:59.220Z,83.36
2019-04-29T01:39:59.226Z,82.98
2019-04-29T01:40:59.232Z,82.50
2019-04-29T01:41:59.232Z,82.41
2019-04-29T01:42:59.242Z,82.03
2019-04-29T01:43:59.242Z,81.09
2019-04-29T01:44:59.249Z,81.27
2019-04-29T01:45:59.259Z,82.22
2019-04-29T01:46:59.262Z,82.31
2019-04-29T01:47:59.270Z,83.26
2019-04-29T01:48:59.272Z,83.36
2019-04-29T01:49:59.277Z,83.64
2019-04-29T01:50:59.280Z,84.45
2019-04-29T01:51:59.286Z,84.11
2019-04-29T01:52:59.301Z,83.17
2019-04-29T01:53:59.297Z,81.18
2019-04-29T01:54:59.306Z,80.62
2019-04-29T01:55:59.306Z,81.46
2019-04-29T01:56:59.315Z,80.99
2019-04-29T01:57:59.331Z,80.99
2019-04-29T01:58:59.333Z,80.05
2019-04-29T01:59:59.330Z,80.05
2019-04-29T02:00:59.340Z,79.95
2019-04-29T02:01:59.344Z,80.14
2019-04-29T02:02:59.347Z,80.71
2019-04-29T02:03:59.354Z,81.09
2019-04-29T02:04:59.357Z,81.37
2019-04-29T02:05:59.369Z,82.03
2019-04-29T02:06:59.372Z,82.22
2019-04-29T02:07:59.372Z,82.69
2019-04-29T02:08:59.378Z,82.69
2019-04-29T02:09:59.384Z,82.98
2019-04-29T02:10:59.390Z,82.88
2019-04-29T02:11:59.391Z,82.03
2019-04-29T02:12:59.397Z,81.74
2019-04-29T02:13:59.406Z,81.93
2019-04-29T02:14:59.471Z,81.84
2019-04-29T02:15:59.412Z,82.03
2019-04-29T02:16:59.423Z,81.27
2019-04-29T02:17:59.428Z,80.90
2019-04-29T02:18:59.431Z,80.71
2019-04-29T02:19:59.435Z,79.95
2019-04-29T02:20:59.438Z,79.48
2019-04-29T02:21:59.444Z,79.67
2019-04-29T02:22:59.448Z,80.05
2019-04-29T02:23:59.461Z,80.24
2019-04-29T02:24:59.460Z,80.05
2019-04-29T02:25:59.467Z,80.24
2019-04-29T02:26:59.471Z,80.14
2019-04-29T02:27:59.477Z,80.14
2019-04-29T02:28:59.487Z,80.43
2019-04-29T02:29:59.491Z,80.71
2019-04-29T02:30:59.507Z,80.99
2019-04-29T02:31:59.501Z,80.71
2019-04-29T02:32:59.508Z,79.95
2019-04-29T02:33:59.512Z,80.05
2019-04-29T02:34:59.515Z,79.67
2019-04-29T02:35:59.522Z,79.86
2019-04-29T02:36:59.527Z,79.19
2019-04-29T02:37:59.549Z,77.69
2019-04-29T02:38:59.543Z,77.50
2019-04-29T02:39:59.552Z,77.02
2019-04-29T02:40:59.556Z,76.55
2019-04-29T02:41:59.558Z,76.74
2019-04-29T02:42:59.573Z,76.93
2019-04-29T02:43:59.565Z,78.44
2019-04-29T02:44:59.573Z,81.46
2019-04-29T02:45:59.578Z,84.30
2019-04-29T02:46:59.588Z,85.62
2019-04-29T02:47:59.592Z,86.76
2019-04-29T02:48:59.596Z,87.61
2019-04-29T02:49:59.605Z,87.61
2019-04-29T02:50:59.606Z,88.93
2019-04-29T02:51:59.620Z,89.97
2019-04-29T02:52:59.617Z,89.07
2019-04-29T02:53:59.622Z,88.65
2019-04-29T02:54:59.622Z,88.65
2019-04-29T02:55:59.635Z,88.46
2019-04-29T02:56:59.640Z,88.74
2019-04-29T02:57:59.642Z,88.65
2019-04-29T02:58:59.732Z,87.89
2019-04-29T02:59:59.655Z,86.00
2019-04-29T03:00:59.657Z,84.49
2019-04-29T03:01:59.662Z,83.26
2019-04-29T03:02:59.670Z,81.93
2019-04-29T03:03:59.683Z,80.90
2019-04-29T03:04:59.680Z,79.10
2019-04-29T03:05:59.684Z,79.48
2019-04-29T03:06:59.702Z,79.38
2019-04-29T03:07:59.697Z,79.19
2019-04-29T03:08:59.703Z,78.53
2019-04-29T03:09:59.710Z,77.87
2019-04-29T03:10:59.710Z,77.69
2019-04-29T03:12:01.862Z,78.81
2019-04-29T03:12:59.729Z,79.38
2019-04-29T03:13:59.734Z,81.46
2019-04-29T03:14:59.741Z,82.88
2019-04-29T03:15:59.742Z,83.64
2019-04-29T03:16:59.747Z,83.54
2019-04-29T03:17:59.750Z,83.92
2019-04-29T03:18:59.760Z,84.01
2019-04-29T03:19:59.764Z,84.30
2019-04-29T03:20:59.773Z,84.96
2019-04-29T03:21:59.777Z,85.15
2019-04-29T03:22:59.778Z,84.96
2019-04-29T03:23:59.784Z,84.49
2019-04-29T03:24:59.789Z,84.86
2019-04-29T03:25:59.801Z,84.39
2019-04-29T03:26:59.807Z,83.92
2019-04-29T03:27:59.814Z,84.86
2019-04-29T03:28:59.812Z,84.86
2019-04-29T03:29:59.819Z,85.53
2019-04-29T03:30:59.828Z,86.00
2019-04-29T03:31:59.829Z,84.96
2019-04-29T03:32:59.847Z,84.58
2019-04-29T03:33:59.846Z,84.86
2019-04-29T03:34:59.846Z,85.62
2019-04-29T03:35:59.853Z,85.72
2019-04-29T03:36:59.867Z,86.00
2019-04-29T03:37:59.867Z,86.00
2019-04-29T03:38:59.872Z,85.53
2019-04-29T03:39:59.875Z,85.34
2019-04-29T03:40:59.883Z,86.10
2019-04-29T03:41:59.886Z,86.19
2019-04-29T03:42:59.894Z,86.85
2019-04-29T03:43:59.895Z,86.85
2019-04-29T03:44:59.908Z,87.13
2019-04-29T03:45:59.912Z,86.85
2019-04-29T03:46:59.917Z,85.53
2019-04-29T03:47:59.918Z,84.58
2019-04-29T03:48:59.923Z,83.64
2019-04-29T03:49:59.929Z,82.03
2019-04-29T03:50:59.944Z,80.71
2019-04-29T03:51:59.939Z,80.52
2019-04-29T03:52:59.952Z,80.33
2019-04-29T03:53:59.950Z,80.62
2019-04-29T03:54:59.958Z,80.24
2019-04-29T03:56:00.081Z,79.48
2019-04-29T03:56:59.971Z,79.00
2019-04-29T03:57:59.972Z,78.91
2019-04-29T03:58:59.982Z,78.72
2019-04-29T03:59:59.987Z,79.00
2019-04-29T04:00:59.990Z,79.00
2019-04-29T04:02:00.019Z,80.52
2019-04-29T04:03:00.005Z,80.90
2019-04-29T04:04:00.008Z,80.99
2019-04-29T04:05:00.038Z,80.90
2019-04-29T04:06:00.025Z,81.56
2019-04-29T04:07:03.847Z,81.56
2019-04-29T04:08:00.029Z,81.93
2019-04-29T04:09:05.878Z,81.84
2019-04-29T04:10:00.045Z,81.74
2019-04-29T04:11:00.052Z,81.74
2019-04-29T04:12:00.063Z,81.65
2019-04-29T04:13:00.061Z,81.46
2019-04-29T04:14:00.064Z,81.37
2019-04-29T04:15:00.067Z,80.80
2019-04-29T04:16:00.079Z,80.90
2019-04-29T04:17:00.084Z,80.80
2019-04-29T04:18:00.091Z,80.14
2019-04-29T04:19:00.096Z,79.95
2019-04-29T04:20:00.100Z,79.57
2019-04-29T04:21:00.105Z,79.76
2019-04-29T04:22:00.114Z,80.62
2019-04-29T04:23:00.117Z,80.71
2019-04-29T04:24:00.121Z,80.90
2019-04-29T04:25:00.142Z,80.99
2019-04-29T04:26:00.135Z,80.99
2019-04-29T04:27:00.138Z,80.33
2019-04-29T04:28:00.141Z,80.24
2019-04-29T04:29:00.157Z,79.95
2019-04-29T04:30:00.161Z,79.67
2019-04-29T04:31:00.156Z,79.00
2019-04-29T04:32:00.160Z,79.19
2019-04-29T04:33:00.169Z,79.63
2019-04-29T04:34:00.178Z,79.67
2019-04-29T04:35:00.179Z,80.14
2019-04-29T04:36:00.185Z,80.43
2019-04-29T04:37:00.605Z,80.14
2019-04-29T04:38:00.191Z,80.80
2019-04-29T04:39:00.204Z,81.46
2019-04-29T04:40:00.204Z,81.56
2019-04-29T04:41:00.218Z,81.27
2019-04-29T04:42:00.217Z,81.09
2019-04-29T04:43:00.229Z,81.56
2019-04-29T04:44:00.229Z,81.84
2019-04-29T04:45:00.229Z,81.27
2019-04-29T04:46:00.234Z,81.18
2019-04-29T04:47:00.241Z,81.27
2019-04-29T04:48:00.250Z,81.46
2019-04-29T04:49:00.258Z,81.65
2019-04-29T04:50:00.259Z,82.60
2019-04-29T04:51:00.260Z,82.98
2019-04-29T04:52:00.269Z,82.03
2019-04-29T04:53:00.358Z,81.46
2019-04-29T04:54:00.276Z,81.37
2019-04-29T04:55:00.281Z,81.18
2019-04-29T04:56:00.289Z,81.65
2019-04-29T04:57:00.298Z,81.46
2019-04-29T04:58:00.299Z,82.31
2019-04-29T04:59:00.316Z,82.88
2019-04-29T05:00:00.313Z,82.31
2019-04-29T05:01:00.323Z,81.56
2019-04-29T05:02:00.323Z,81.56
2019-04-29T05:03:00.326Z,81.74
2019-04-29T05:04:00.329Z,82.22
2019-04-29T05:05:00.335Z,82.79
2019-04-29T05:06:00.343Z,82.79
2019-04-29T05:07:00.350Z,82.79
2019-04-29T05:08:00.357Z,82.98
2019-04-29T05:09:00.361Z,82.98
2019-04-29T05:10:00.364Z,82.88
2019-04-29T05:11:00.365Z,83.54
2019-04-29T05:12:00.377Z,83.45
2019-04-29T05:13:00.381Z,83.54
2019-04-29T05:14:00.390Z,83.54
2019-04-29T05:15:00.386Z,84.58
2019-04-29T05:16:00.392Z,84.86
2019-04-29T05:17:00.401Z,85.05
2019-04-29T05:18:00.406Z,85.15
2019-04-29T05:19:00.408Z,85.62
2019-04-29T05:20:00.424Z,86.19
2019-04-29T05:21:00.424Z,86.57
2019-04-29T05:22:00.429Z,87.23
2019-04-29T05:23:00.495Z,87.32
2019-04-29T05:24:00.441Z,86.19
2019-04-29T05:25:00.444Z,86.10
2019-04-29T05:26:00.452Z,87.04
2019-04-29T05:27:00.455Z,85.62
2019-04-29T05:28:00.460Z,84.96
2019-04-29T05:29:00.469Z,84.68
2019-04-29T05:30:00.468Z,84.58
2019-04-29T05:31:00.476Z,84.11
2019-04-29T05:32:00.478Z,83.83
2019-04-29T05:33:00.493Z,84.77
2019-04-29T05:34:00.495Z,85.43
2019-04-29T05:35:00.499Z,85.34
2019-04-29T05:36:02.117Z,85.62
2019-04-29T05:37:00.508Z,84.77
2019-04-29T05:38:00.512Z,84.96
2019-04-29T05:39:00.515Z,85.15
2019-04-29T05:40:00.528Z,85.15
2019-04-29T05:41:00.532Z,85.62
2019-04-29T05:42:00.537Z,84.77
2019-04-29T05:43:00.544Z,84.68
2019-04-29T05:44:00.549Z,84.68
2019-04-29T05:45:00.556Z,85.05
2019-04-29T05:46:00.558Z,85.05
2019-04-29T05:47:00.564Z,84.30
2019-04-29T05:48:00.566Z,84.68
2019-04-29T05:49:02.357Z,85.53
2019-04-29T05:50:00.603Z,85.81
2019-04-29T05:51:00.586Z,86.00
2019-04-29T05:52:01.963Z,84.77
2019-04-29T05:53:00.594Z,85.05
2019-04-29T05:54:00.599Z,84.58
2019-04-29T05:55:01.514Z,84.30
2019-04-29T05:56:00.609Z,84.96
2019-04-29T05:57:00.614Z,84.11
2019-04-29T05:58:03.111Z,83.26
2019-04-29T05:59:00.624Z,83.36
2019-04-29T06:00:00.631Z,83.45
2019-04-29T06:01:00.641Z,83.54
2019-04-29T06:02:00.645Z,83.45
2019-04-29T06:03:00.646Z,83.36
2019-04-29T06:04:00.656Z,84.30
2019-04-29T06:05:00.660Z,83.64
2019-04-29T06:06:00.666Z,83.54
2019-04-29T06:07:00.672Z,83.64
2019-04-29T06:08:01.467Z,83.92
2019-04-29T06:09:00.684Z,84.20
2019-04-29T06:10:00.688Z,83.36
2019-04-29T06:11:00.702Z,83.17
2019-04-29T06:12:00.697Z,84.01
2019-04-29T06:13:00.705Z,84.01
2019-04-29T06:14:00.714Z,84.58
2019-04-29T06:15:00.711Z,85.05
2019-04-29T06:16:00.723Z,84.96
2019-04-29T06:17:02.925Z,85.81
2019-04-29T06:18:00.736Z,86.00
2019-04-29T06:19:03.093Z,85.91
2019-04-29T06:20:00.743Z,86.85
2019-04-29T06:21:08.992Z,85.91
2019-04-29T06:22:03.781Z,85.24
2019-04-29T06:23:00.760Z,86.10
2019-04-29T06:24:04.521Z,86.29
2019-04-29T06:25:00.771Z,86.85
2019-04-29T06:26:00.774Z,87.13
2019-04-29T06:27:00.778Z,87.61
2019-04-29T06:28:00.790Z,87.79
2019-04-29T06:29:00.790Z,88.27
2019-04-29T06:30:03.251Z,88.36
2019-04-29T06:31:00.799Z,87.61
2019-04-29T06:32:00.804Z,86.38
2019-04-29T06:33:00.815Z,85.81
2019-04-29T06:34:05.045Z,86.10
2019-04-29T06:35:00.820Z,86.00
2019-04-29T06:36:00.825Z,84.96
2019-04-29T06:37:00.831Z,85.72
2019-04-29T06:38:00.837Z,86.38
2019-04-29T06:39:00.842Z,85.34
2019-04-29T06:40:00.850Z,86.19
2019-04-29T06:41:00.856Z,85.62
2019-04-29T06:42:00.868Z,85.05
2019-04-29T06:43:00.867Z,85.62
2019-04-29T06:44:06.614Z,84.77
2019-04-29T06:45:00.878Z,84.86
2019-04-29T06:46:00.880Z,85.53
2019-04-29T06:47:00.891Z,86.19
2019-04-29T06:48:00.895Z,87.51
2019-04-29T06:49:10.181Z,88.46
2019-04-29T06:50:00.901Z,86.94
2019-04-29T06:51:00.906Z,86.38
2019-04-29T06:52:00.916Z,87.04
2019-04-29T06:53:00.918Z,86.94
2019-04-29T06:54:00.923Z,86.94
2019-04-29T06:55:00.933Z,86.76
2019-04-29T06:56:00.939Z,85.24
2019-04-29T06:57:00.944Z,85.43
2019-04-29T06:58:00.948Z,86.71
2019-04-29T06:59:00.953Z,88.41
2019-04-29T07:00:00.955Z,91.24
2019-04-29T07:01:02.970Z,88.26
2019-04-29T07:02:00.979Z,86.33
2019-04-29T07:03:00.971Z,86.14
2019-04-29T07:04:01.439Z,84.16
2019-04-29T07:05:00.985Z,85.28
2019-04-29T07:06:00.992Z,85.28
2019-04-29T07:07:00.997Z,84.72
2019-04-29T07:08:00.998Z,82.07
2019-04-29T07:09:01.006Z,82.17
2019-04-29T07:10:01.011Z,85.00
2019-04-29T07:11:02.871Z,84.91
2019-04-29T07:12:01.897Z,83.68
2019-04-29T07:13:01.025Z,83.30
2019-04-29T07:14:01.031Z,83.68
2019-04-29T07:15:01.037Z,84.53
2019-04-29T07:16:01.049Z,84.81
2019-04-29T07:17:05.558Z,84.53
2019-04-29T07:18:01.056Z,85.66
2019-04-29T07:19:01.058Z,83.87
2019-04-29T07:20:02.084Z,81.88
2019-04-29T07:21:01.073Z,81.51
2019-04-29T07:22:01.076Z,81.51
2019-04-29T07:23:02.475Z,80.75
2019-04-29T07:24:01.089Z,81.03
2019-04-29T07:25:01.096Z,81.22
2019-04-29T07:26:01.099Z,82.26
2019-04-29T07:27:02.856Z,82.35
2019-04-29T07:28:01.112Z,83.30
2019-04-29T07:29:01.114Z,83.40
2019-04-29T07:30:01.861Z,84.63
2019-04-29T07:31:02.843Z,85.10
2019-04-29T07:32:04.690Z,86.90
2019-04-29T07:33:01.142Z,83.21
2019-04-29T07:34:01.152Z,82.64
2019-04-29T07:35:01.153Z,83.21
2019-04-29T07:36:10.832Z,82.64
2019-04-29T07:37:01.166Z,83.49
2019-04-29T07:38:04.480Z,82.73
2019-04-29T07:39:01.172Z,82.07
2019-04-29T07:40:03.714Z,81.79
2019-04-29T07:41:01.185Z,82.92
2019-04-29T07:42:03.290Z,83.49
2019-04-29T07:43:02.874Z,83.78
2019-04-29T07:44:01.206Z,83.02
2019-04-29T07:45:01.208Z,83.11
2019-04-29T07:46:03.895Z,85.24
2019-04-29T07:47:02.478Z,84.86
2019-04-29T07:48:01.692Z,83.91
2019-04-29T07:49:02.093Z,84.48
2019-04-29T07:50:01.279Z,84.67
2019-04-29T07:51:04.077Z,82.59
2019-04-29T07:52:01.252Z,82.21
2019-04-29T07:53:01.255Z,81.26
2019-04-29T07:54:01.270Z,80.13
2019-04-29T07:55:01.269Z,79.09
2019-04-29T07:56:01.771Z,81.55
2019-04-29T07:57:01.282Z,84.86
2019-04-29T07:58:01.288Z,85.85
2019-04-29T07:59:03.095Z,87.74
2019-04-29T08:00:01.304Z,85.94
2019-04-29T08:01:01.307Z,84.66
2019-04-29T08:02:01.467Z,81.15
2019-04-29T08:03:01.370Z,80.02
2019-04-29T08:04:01.327Z,79.55
2019-04-29T08:05:01.332Z,79.55
2019-04-29T08:06:01.339Z,79.36
2019-04-29T08:07:01.343Z,78.50
2019-04-29T08:08:01.349Z,75.24
2019-04-29T08:09:07.335Z,75.15
2019-04-29T08:10:01.368Z,78.75
2019-04-29T08:11:01.370Z,77.51
2019-04-29T08:12:01.377Z,78.56
2019-04-29T08:13:01.383Z,78.94
2019-04-29T08:14:01.388Z,79.13
2019-04-29T08:15:07.538Z,79.32
2019-04-29T08:16:01.402Z,77.42
2019-04-29T08:17:01.409Z,76.86
2019-04-29T08:18:06.684Z,78.85
2019-04-29T08:19:04.570Z,78.65
2019-04-29T08:20:05.226Z,77.04
2019-04-29T08:21:01.436Z,76.67
2019-04-29T08:22:01.438Z,77.14
2019-04-29T08:23:02.484Z,78.94
2019-04-29T08:24:01.451Z,79.22
2019-04-29T08:25:01.463Z,80.74
2019-04-29T08:26:02.537Z,84.47
2019-04-29T08:27:01.474Z,81.63
2019-04-29T08:28:01.477Z,77.27
2019-04-29T08:29:01.673Z,78.50
2019-04-29T08:30:01.491Z,76.99
2019-04-29T08:31:01.500Z,75.00
2019-04-29T08:32:02.553Z,72.73
2019-04-29T08:33:01.516Z,75.34
2019-04-29T08:34:01.523Z,77.70
2019-04-29T08:35:03.355Z,78.85
2019-04-29T08:36:01.535Z,81.02
2019-04-29T08:37:01.537Z,81.92
2019-04-29T08:38:01.550Z,83.24
2019-04-29T08:39:08.352Z,82.10
2019-04-29T08:40:15.513Z,80.07
2019-04-29T08:41:01.566Z,79.88
2019-04-29T08:42:03.868Z,82.82
2019-04-29T08:43:01.582Z,85.61
2019-04-29T08:44:15.218Z,84.28
2019-04-29T08:45:01.937Z,82.76
2019-04-29T08:46:01.609Z,81.92
2019-04-29T08:47:01.608Z,80.11
2019-04-29T08:48:01.614Z,79.79
2019-04-29T08:49:06.101Z,81.96
2019-04-29T08:50:01.633Z,83.48
2019-04-29T08:51:01.641Z,83.58
2019-04-29T08:52:01.648Z,82.06
2019-04-29T08:53:01.656Z,81.30
2019-04-29T08:54:01.659Z,79.13
2019-04-29T08:55:01.663Z,80.36
2019-04-29T08:56:01.670Z,80.45
2019-04-29T08:57:04.068Z,80.74
2019-04-29T08:58:01.683Z,81.12
2019-04-29T08:59:01.695Z,81.49
2019-04-29T09:00:01.705Z,80.93
2019-04-29T09:01:01.708Z,80.55
2019-04-29T09:02:05.298Z,79.41
2019-04-29T09:03:01.724Z,79.69
2019-04-29T09:04:01.724Z,78.94
2019-04-29T09:05:01.735Z,78.75
2019-04-29T09:06:05.382Z,78.27
2019-04-29T09:07:12.317Z,77.70
2019-04-29T09:08:01.753Z,78.65
2019-04-29T09:09:04.916Z,77.94
2019-04-29T09:10:03.590Z,76.00
2019-04-29T09:11:01.777Z,76.38
2019-04-29T09:12:01.785Z,79.41
2019-04-29T09:13:01.793Z,79.50
2019-04-29T09:14:01.796Z,80.45
2019-04-29T09:15:01.802Z,80.64
2019-04-29T09:16:01.808Z,78.85
2019-04-29T09:17:04.800Z,77.89
2019-04-29T09:18:01.825Z,78.85
2019-04-29T09:19:01.830Z,79.79
2019-04-29T09:20:01.867Z,77.99
2019-04-29T09:21:01.843Z,79.32
2019-04-29T09:22:01.853Z,79.03
2019-04-29T09:23:01.861Z,79.03
2019-04-29T09:24:01.869Z,78.37
2019-04-29T09:25:01.881Z,78.65
2019-04-29T09:26:03.187Z,81.12
2019-04-29T09:27:05.024Z,80.96
2019-04-29T09:28:01.894Z,80.21
2019-04-29T09:29:03.852Z,78.50
2019-04-29T09:30:01.911Z,81.06
2019-04-29T09:31:01.913Z,81.82
2019-04-29T09:32:01.920Z,79.74
2019-04-29T09:33:01.928Z,78.98
2019-04-29T09:34:06.649Z,80.96
2019-04-29T09:35:01.947Z,81.15
2019-04-29T09:36:01.954Z,82.39
2019-04-29T09:37:01.967Z,81.53
2019-04-29T09:38:01.963Z,81.25
2019-04-29T09:39:01.974Z,81.02
2019-04-29T09:40:01.979Z,81.55
2019-04-29T09:41:01.985Z,83.15
2019-04-29T09:42:03.445Z,84.90
2019-04-29T09:43:14.606Z,83.72
2019-04-29T09:44:03.880Z,84.95
2019-04-29T09:45:02.033Z,83.34
2019-04-29T09:46:02.019Z,84.58
2019-04-29T09:47:04.163Z,87.17
2019-04-29T09:48:02.038Z,85.75
2019-04-29T09:49:02.045Z,84.75
2019-04-29T09:50:02.052Z,84.32
2019-04-29T09:51:02.050Z,80.82
2019-04-29T09:52:02.062Z,82.33
2019-04-29T09:53:02.076Z,80.68
2019-04-29T09:54:02.076Z,77.04
2019-04-29T09:55:04.088Z,80.83
2019-04-29T09:56:02.088Z,82.25
2019-04-29T09:57:02.095Z,81.21
2019-04-29T09:58:02.101Z,81.83
2019-04-29T09:59:02.106Z,83.06
2019-04-29T10:00:05.280Z,83.76
2019-04-29T10:01:02.123Z,83.95
2019-04-29T10:02:02.129Z,84.66
2019-04-29T10:03:02.952Z,82.53
2019-04-29T10:04:02.136Z,84.42
2019-04-29T10:05:02.172Z,83.67
2019-04-29T10:06:02.151Z,85.13
2019-04-29T10:07:02.163Z,82.20
2019-04-29T10:08:02.174Z,82.86
2019-04-29T10:09:02.177Z,82.48
2019-04-29T10:10:06.734Z,81.92
2019-04-29T10:11:02.195Z,84.28
2019-04-29T10:12:02.197Z,84.75
2019-04-29T10:13:02.199Z,83.14
2019-04-29T10:14:02.209Z,83.10
2019-04-29T10:15:02.212Z,83.39
2019-04-29T10:16:02.246Z,85.09
2019-04-29T10:17:02.230Z,84.81
2019-04-29T10:18:02.238Z,84.52
2019-04-29T10:19:05.300Z,85.85
2019-04-29T10:20:02.246Z,84.81
2019-04-29T10:21:02.258Z,85.38
2019-04-29T10:22:02.264Z,87.02
2019-04-29T10:23:02.271Z,85.23
2019-04-29T10:24:02.279Z,83.14
2019-04-29T10:25:02.285Z,83.05
2019-04-29T10:26:02.289Z,83.14
2019-04-29T10:27:02.296Z,83.28
2019-04-29T10:28:02.307Z,83.00
2019-04-29T10:29:02.314Z,81.29
2019-04-29T10:30:02.321Z,78.59
2019-04-29T10:31:02.322Z,80.30
2019-04-29T10:32:06.395Z,80.87
2019-04-29T10:33:02.336Z,79.93
2019-04-29T10:34:02.348Z,80.58
2019-04-29T10:35:03.522Z,78.27
2019-04-29T10:36:02.357Z,80.58
2019-04-29T10:37:02.366Z,80.07
2019-04-29T10:38:03.201Z,81.25
2019-04-29T10:39:02.380Z,80.49
2019-04-29T10:40:10.992Z,79.83
2019-04-29T10:41:02.442Z,79.22
2019-04-29T10:42:02.402Z,81.06
2019-04-29T10:43:02.408Z,79.45
2019-04-29T10:44:02.411Z,78.50
2019-04-29T10:45:02.423Z,79.32
2019-04-29T10:46:02.432Z,79.03
2019-04-29T10:47:02.435Z,78.85
2019-04-29T10:48:02.441Z,78.18
2019-04-29T10:49:03.627Z,78.03
2019-04-29T10:50:02.453Z,78.22
2019-04-29T10:51:02.461Z,76.80
2019-04-29T10:52:02.778Z,75.76
2019-04-29T10:53:02.472Z,76.14
2019-04-29T10:54:02.485Z,76.23
2019-04-29T10:55:02.488Z,76.32
2019-04-29T10:56:05.887Z,78.98
2019-04-29T10:57:02.506Z,77.18
2019-04-29T10:58:02.510Z,78.64
2019-04-29T10:59:04.560Z,76.65
2019-04-29T11:00:02.527Z,77.03
2019-04-29T11:01:02.529Z,75.60
2019-04-29T11:02:08.965Z,74.18
2019-04-29T11:03:02.543Z,76.68
2019-04-29T11:04:02.820Z,71.72
2019-04-29T11:05:02.940Z,71.78
2019-04-29T11:06:02.573Z,73.43
2019-04-29T11:07:13.581Z,74.47
2019-04-29T11:08:04.285Z,73.90
2019-04-29T11:09:02.592Z,72.38
2019-04-29T11:10:02.612Z,72.48
2019-04-29T11:11:02.803Z,69.64
2019-04-29T11:12:02.611Z,70.30
2019-04-29T11:13:02.621Z,69.64
2019-04-29T11:14:03.160Z,71.91
2019-04-29T11:15:02.633Z,68.59
2019-04-29T11:16:02.638Z,70.97
2019-04-29T11:17:02.647Z,71.44
2019-04-29T11:18:03.600Z,71.62
2019-04-29T11:19:05.415Z,69.64
2019-04-29T11:20:02.672Z,67.65
2019-04-29T11:21:02.674Z,69.35
2019-04-29T11:22:03.292Z,69.64
2019-04-29T11:23:02.690Z,72.10
2019-04-29T11:24:02.699Z,70.39
2019-04-29T11:25:02.705Z,71.34
2019-04-29T11:26:02.712Z,71.25
2019-04-29T11:27:11.583Z,72.96
2019-04-29T11:28:02.731Z,71.91
2019-04-29T11:29:05.434Z,72.29
2019-04-29T11:30:04.533Z,75.32
2019-04-29T11:31:02.748Z,74.09
2019-04-29T11:32:02.762Z,72.19
2019-04-29T11:33:04.823Z,73.33
2019-04-29T11:34:05.391Z,74.15
2019-04-29T11:35:02.781Z,75.57
2019-04-29T11:36:03.923Z,76.93
2019-04-29T11:37:02.796Z,75.42
2019-04-29T11:38:02.803Z,72.00
2019-04-29T11:39:02.810Z,70.78
2019-04-29T11:40:02.823Z,72.67
2019-04-29T11:41:02.836Z,74.66
2019-04-29T11:42:02.833Z,74.28
2019-04-29T11:43:02.838Z,74.37
2019-04-29T11:44:02.848Z,73.65
2019-04-29T11:45:03.798Z,73.08
2019-04-29T11:46:02.858Z,71.44
2019-04-29T11:47:02.868Z,68.98
2019-04-29T11:48:02.879Z,69.79
2019-04-29T11:49:02.878Z,71.02
2019-04-29T11:50:02.890Z,74.18
2019-04-29T11:51:02.896Z,73.43
2019-04-29T11:52:09.750Z,70.45
2019-04-29T11:53:02.910Z,72.57
2019-04-29T11:54:02.920Z,74.37
2019-04-29T11:55:02.923Z,73.18
2019-04-29T11:56:02.928Z,74.03
2019-04-29T11:57:02.938Z,73.46
2019-04-29T11:58:02.945Z,70.34
2019-04-29T11:59:02.993Z,69.67
2019-04-29T12:00:02.974Z,71.76
2019-04-29T12:01:04.015Z,69.67
2019-04-29T12:02:02.979Z,68.21
2019-04-29T12:03:02.979Z,69.45
2019-04-29T12:04:02.991Z,69.45
2019-04-29T12:05:04.147Z,71.25
2019-04-29T12:06:03.002Z,72.23
2019-04-29T12:07:03.015Z,71.66
2019-04-29T12:08:06.993Z,69.92
2019-04-29T12:09:06.434Z,70.49
2019-04-29T12:10:06.547Z,70.30
2019-04-29T12:11:07.246Z,71.53
2019-04-29T12:12:03.047Z,71.34
2019-04-29T12:13:03.054Z,71.06
2019-04-29T12:14:04.566Z,70.30
2019-04-29T12:15:03.069Z,70.58
2019-04-29T12:16:03.077Z,71.72
2019-04-29T12:17:03.114Z,72.33
2019-04-29T12:18:03.093Z,69.35
2019-04-29T12:19:03.102Z,68.59
2019-04-29T12:20:03.111Z,69.54
2019-04-29T12:21:03.118Z,70.97
2019-04-29T12:22:04.755Z,70.24
2019-04-29T12:23:03.128Z,69.38
2019-04-29T12:24:03.136Z,68.15
2019-04-29T12:25:03.143Z,68.44
2019-04-29T12:26:04.980Z,68.82
2019-04-29T12:27:03.164Z,68.00
2019-04-29T12:28:18.158Z,67.71
2019-04-29T12:29:03.181Z,66.74
2019-04-29T12:30:03.187Z,67.40
2019-04-29T12:31:05.645Z,67.30
2019-04-29T12:32:03.202Z,68.44
2019-04-29T12:33:03.292Z,67.87
2019-04-29T12:34:03.217Z,68.15
2019-04-29T12:35:03.221Z,69.13
2019-04-29T12:36:05.143Z,66.96
2019-04-29T12:37:03.253Z,67.24
2019-04-29T12:38:05.844Z,66.29
2019-04-29T12:39:03.341Z,66.64
2019-04-29T12:40:03.260Z,68.00
2019-04-29T12:41:03.290Z,67.43
2019-04-29T12:42:04.526Z,65.63
2019-04-29T12:43:03.284Z,66.93
2019-04-29T12:44:03.299Z,67.14
2019-04-29T12:45:03.306Z,68.10
2019-04-29T12:46:03.309Z,72.21
2019-04-29T12:47:03.323Z,67.56
2019-04-29T12:48:06.384Z,65.09
2019-04-29T12:49:07.604Z,62.88
2019-04-29T12:50:03.350Z,63.29
2019-04-29T12:51:03.360Z,65.60
2019-04-29T12:52:03.360Z,65.31
2019-04-29T12:53:03.368Z,67.57